sensor_id;sensor_type;location;lat;lon;timestamp;P1;durP1;ratioP1;P2;durP2;ratioP2
15528;SDS011;7866;52.280;9.500;2022-09-20T00:04:47;3.77;;;1.27;;
15528;SDS011;7866;52.280;9.500;2022-09-20T00:09:49;3.53;;;1.40;;
15528;SDS011;7866;52.280;9.500;2022-09-20T00:14:52;6.87;;;1.90;;
15528;SDS011;7866;52.280;9.500;2022-09-20T00:19:53;2.57;;;1.57;;
15528;SDS011;7866;52.280;9.500;2022-09-20T00:24:55;3.77;;;1.50;;
15528;SDS011;7866;52.280;9.500;2022-09-20T00:29:58;6.20;;;2.10;;
15528;SDS011;7866;52.280;9.500;2022-09-20T00:35:00;5.33;;;1.70;;
15528;SDS011;7866;52.280;9.500;2022-09-20T00:40:11;8.23;;;1.60;;
15528;SDS011;7866;52.280;9.500;2022-09-20T00:45:19;4.43;;;1.87;;
15528;SDS011;7866;52.280;9.500;2022-09-20T00:50:28;6.40;;;1.50;;
15528;SDS011;7866;52.280;9.500;2022-09-20T00:55:35;4.37;;;1.50;;
15528;SDS011;7866;52.280;9.500;2022-09-20T01:00:42;5.50;;;1.60;;
15528;SDS011;7866;52.280;9.500;2022-09-20T01:05:45;5.00;;;1.73;;
15528;SDS011;7866;52.280;9.500;2022-09-20T01:10:47;7.73;;;2.10;;
15528;SDS011;7866;52.280;9.500;2022-09-20T01:15:50;7.00;;;1.57;;
15528;SDS011;7866;52.280;9.500;2022-09-20T01:20:52;4.90;;;2.20;;
15528;SDS011;7866;52.280;9.500;2022-09-20T01:26:04;5.43;;;1.70;;
15528;SDS011;7866;52.280;9.500;2022-09-20T01:31:28;7.27;;;1.80;;
15528;SDS011;7866;52.280;9.500;2022-09-20T01:36:36;6.40;;;1.90;;
15528;SDS011;7866;52.280;9.500;2022-09-20T01:41:44;8.83;;;2.13;;
15528;SDS011;7866;52.280;9.500;2022-09-20T01:46:55;5.47;;;1.70;;
15528;SDS011;7866;52.280;9.500;2022-09-20T01:57:33;4.87;;;2.17;;
15528;SDS011;7866;52.280;9.500;2022-09-20T02:03:16;4.93;;;1.70;;
15528;SDS011;7866;52.280;9.500;2022-09-20T02:08:52;4.77;;;1.93;;
15528;SDS011;7866;52.280;9.500;2022-09-20T02:14:21;5.10;;;1.60;;
15528;SDS011;7866;52.280;9.500;2022-09-20T02:19:37;7.27;;;2.00;;
15528;SDS011;7866;52.280;9.500;2022-09-20T02:24:52;6.90;;;1.80;;
15528;SDS011;7866;52.280;9.500;2022-09-20T02:30:09;5.23;;;1.90;;
15528;SDS011;7866;52.280;9.500;2022-09-20T02:35:31;6.47;;;1.90;;
15528;SDS011;7866;52.280;9.500;2022-09-20T02:40:59;7.67;;;2.33;;
15528;SDS011;7866;52.280;9.500;2022-09-20T02:46:16;4.73;;;2.07;;
15528;SDS011;7866;52.280;9.500;2022-09-20T02:51:27;2.93;;;1.70;;
15528;SDS011;7866;52.280;9.500;2022-09-20T02:56:36;5.60;;;1.93;;
15528;SDS011;7866;52.280;9.500;2022-09-20T03:01:44;7.87;;;2.20;;
15528;SDS011;7866;52.280;9.500;2022-09-20T03:06:59;9.20;;;2.17;;
15528;SDS011;7866;52.280;9.500;2022-09-20T03:12:09;4.67;;;2.17;;
15528;SDS011;7866;52.280;9.500;2022-09-20T03:17:19;5.23;;;1.90;;
15528;SDS011;7866;52.280;9.500;2022-09-20T03:22:30;4.17;;;2.10;;
15528;SDS011;7866;52.280;9.500;2022-09-20T03:27:42;5.37;;;1.73;;
15528;SDS011;7866;52.280;9.500;2022-09-20T03:32:53;4.80;;;2.20;;
15528;SDS011;7866;52.280;9.500;2022-09-20T03:38:08;5.50;;;2.50;;
15528;SDS011;7866;52.280;9.500;2022-09-20T03:43:23;5.40;;;2.40;;
15528;SDS011;7866;52.280;9.500;2022-09-20T03:48:47;3.97;;;1.77;;
15528;SDS011;7866;52.280;9.500;2022-09-20T03:54:11;6.83;;;2.33;;
15528;SDS011;7866;52.280;9.500;2022-09-20T03:59:34;6.37;;;2.23;;
15528;SDS011;7866;52.280;9.500;2022-09-20T04:04:47;5.13;;;2.33;;
15528;SDS011;7866;52.280;9.500;2022-09-20T04:15:19;7.10;;;2.17;;
15528;SDS011;7866;52.280;9.500;2022-09-20T04:20:31;7.43;;;2.40;;
15528;SDS011;7866;52.280;9.500;2022-09-20T04:25:41;5.10;;;2.30;;
15528;SDS011;7866;52.280;9.500;2022-09-20T04:30:47;6.50;;;2.70;;
15528;SDS011;7866;52.280;9.500;2022-09-20T04:35:56;5.77;;;2.40;;
15528;SDS011;7866;52.280;9.500;2022-09-20T04:41:36;6.93;;;2.27;;
15528;SDS011;7866;52.280;9.500;2022-09-20T04:47:28;6.23;;;2.47;;
15528;SDS011;7866;52.280;9.500;2022-09-20T05:03:45;4.60;;;2.47;;
15528;SDS011;7866;52.280;9.500;2022-09-20T05:14:53;4.97;;;2.17;;
15528;SDS011;7866;52.280;9.500;2022-09-20T05:20:17;6.53;;;1.93;;
15528;SDS011;7866;52.280;9.500;2022-09-20T05:25:40;4.67;;;1.90;;
15528;SDS011;7866;52.280;9.500;2022-09-20T05:30:53;2.80;;;1.53;;
15528;SDS011;7866;52.280;9.500;2022-09-20T05:36:00;2.47;;;1.70;;
15528;SDS011;7866;52.280;9.500;2022-09-20T05:41:09;5.20;;;2.10;;
15528;SDS011;7866;52.280;9.500;2022-09-20T05:46:24;4.63;;;2.00;;
15528;SDS011;7866;52.280;9.500;2022-09-20T05:51:45;6.07;;;2.03;;
15528;SDS011;7866;52.280;9.500;2022-09-20T05:56:55;5.83;;;2.43;;
15528;SDS011;7866;52.280;9.500;2022-09-20T06:02:13;8.17;;;2.60;;
15528;SDS011;7866;52.280;9.500;2022-09-20T06:07:28;5.67;;;2.70;;
15528;SDS011;7866;52.280;9.500;2022-09-20T06:12:45;7.03;;;3.00;;
15528;SDS011;7866;52.280;9.500;2022-09-20T06:17:56;5.77;;;2.67;;
15528;SDS011;7866;52.280;9.500;2022-09-20T06:23:07;7.80;;;2.60;;
15528;SDS011;7866;52.280;9.500;2022-09-20T06:28:11;4.57;;;2.40;;
15528;SDS011;7866;52.280;9.500;2022-09-20T06:33:17;9.07;;;2.57;;
15528;SDS011;7866;52.280;9.500;2022-09-20T06:38:24;9.77;;;2.50;;
15528;SDS011;7866;52.280;9.500;2022-09-20T06:43:58;4.73;;;2.10;;
15528;SDS011;7866;52.280;9.500;2022-09-20T06:49:02;7.53;;;2.23;;
15528;SDS011;7866;52.280;9.500;2022-09-20T06:54:07;7.20;;;2.40;;
15528;SDS011;7866;52.280;9.500;2022-09-20T06:59:17;5.10;;;1.90;;
15528;SDS011;7866;52.280;9.500;2022-09-20T07:04:20;9.33;;;2.43;;
15528;SDS011;7866;52.280;9.500;2022-09-20T07:09:22;8.23;;;3.00;;
15528;SDS011;7866;52.280;9.500;2022-09-20T07:14:24;5.83;;;3.20;;
15528;SDS011;7866;52.280;9.500;2022-09-20T07:19:27;5.70;;;3.20;;
15528;SDS011;7866;52.280;9.500;2022-09-20T07:24:29;6.00;;;2.63;;
15528;SDS011;7866;52.280;9.500;2022-09-20T07:29:31;9.57;;;3.33;;
15528;SDS011;7866;52.280;9.500;2022-09-20T07:34:35;6.20;;;2.40;;
15528;SDS011;7866;52.280;9.500;2022-09-20T07:39:37;6.00;;;2.40;;
15528;SDS011;7866;52.280;9.500;2022-09-20T07:44:38;4.80;;;2.30;;
15528;SDS011;7866;52.280;9.500;2022-09-20T07:49:42;5.50;;;2.10;;
15528;SDS011;7866;52.280;9.500;2022-09-20T07:54:44;9.17;;;2.27;;
15528;SDS011;7866;52.280;9.500;2022-09-20T07:59:46;8.10;;;1.90;;
15528;SDS011;7866;52.280;9.500;2022-09-20T08:04:49;4.33;;;1.60;;
15528;SDS011;7866;52.280;9.500;2022-09-20T08:09:50;6.63;;;2.70;;
15528;SDS011;7866;52.280;9.500;2022-09-20T08:14:52;4.40;;;2.50;;
15528;SDS011;7866;52.280;9.500;2022-09-20T08:19:55;4.60;;;2.10;;
15528;SDS011;7866;52.280;9.500;2022-09-20T08:24:57;6.30;;;2.33;;
15528;SDS011;7866;52.280;9.500;2022-09-20T08:29:59;4.73;;;2.00;;
15528;SDS011;7866;52.280;9.500;2022-09-20T08:35:02;4.37;;;1.70;;
15528;SDS011;7866;52.280;9.500;2022-09-20T08:40:04;5.07;;;1.70;;
15528;SDS011;7866;52.280;9.500;2022-09-20T08:45:10;5.57;;;1.70;;
15528;SDS011;7866;52.280;9.500;2022-09-20T08:50:16;3.53;;;2.13;;
15528;SDS011;7866;52.280;9.500;2022-09-20T08:55:19;3.30;;;1.40;;
15528;SDS011;7866;52.280;9.500;2022-09-20T09:00:23;5.63;;;1.70;;
15528;SDS011;7866;52.280;9.500;2022-09-20T09:05:31;2.77;;;1.23;;
15528;SDS011;7866;52.280;9.500;2022-09-20T09:10:36;6.63;;;1.60;;
15528;SDS011;7866;52.280;9.500;2022-09-20T09:15:38;6.23;;;1.90;;
15528;SDS011;7866;52.280;9.500;2022-09-20T09:20:45;5.23;;;2.03;;
15528;SDS011;7866;52.280;9.500;2022-09-20T09:25:46;4.63;;;1.80;;
15528;SDS011;7866;52.280;9.500;2022-09-20T09:30:48;4.43;;;1.57;;
15528;SDS011;7866;52.280;9.500;2022-09-20T09:35:55;4.43;;;1.80;;
15528;SDS011;7866;52.280;9.500;2022-09-20T09:40:59;3.13;;;1.33;;
15528;SDS011;7866;52.280;9.500;2022-09-20T09:46:15;4.80;;;1.40;;
15528;SDS011;7866;52.280;9.500;2022-09-20T09:51:21;2.40;;;1.10;;
15528;SDS011;7866;52.280;9.500;2022-09-20T09:56:25;4.00;;;1.27;;
15528;SDS011;7866;52.280;9.500;2022-09-20T10:01:33;2.80;;;1.25;;
15528;SDS011;7866;52.280;9.500;2022-09-20T10:06:43;3.95;;;1.23;;
15528;SDS011;7866;52.280;9.500;2022-09-20T10:11:55;3.33;;;1.23;;
15528;SDS011;7866;52.280;9.500;2022-09-20T10:17:13;3.88;;;1.33;;
15528;SDS011;7866;52.280;9.500;2022-09-20T10:22:28;2.50;;;0.88;;
15528;SDS011;7866;52.280;9.500;2022-09-20T10:27:41;3.17;;;1.00;;
15528;SDS011;7866;52.280;9.500;2022-09-20T10:33:02;4.85;;;1.80;;
15528;SDS011;7866;52.280;9.500;2022-09-20T10:38:14;2.17;;;1.02;;
15528;SDS011;7866;52.280;9.500;2022-09-20T10:43:23;4.10;;;1.10;;
15528;SDS011;7866;52.280;9.500;2022-09-20T10:48:41;1.95;;;1.13;;
15528;SDS011;7866;52.280;9.500;2022-09-20T10:53:50;2.45;;;1.10;;
15528;SDS011;7866;52.280;9.500;2022-09-20T10:59:22;4.30;;;1.30;;
15528;SDS011;7866;52.280;9.500;2022-09-20T11:04:40;2.92;;;1.10;;
15528;SDS011;7866;52.280;9.500;2022-09-20T11:09:58;3.90;;;0.93;;
15528;SDS011;7866;52.280;9.500;2022-09-20T11:15:07;4.55;;;1.10;;
15528;SDS011;7866;52.280;9.500;2022-09-20T11:20:18;4.00;;;1.67;;
15528;SDS011;7866;52.280;9.500;2022-09-20T11:25:27;2.85;;;0.80;;
15528;SDS011;7866;52.280;9.500;2022-09-20T11:30:33;3.10;;;1.08;;
15528;SDS011;7866;52.280;9.500;2022-09-20T11:35:44;1.92;;;0.93;;
15528;SDS011;7866;52.280;9.500;2022-09-20T11:40:51;2.75;;;1.00;;
15528;SDS011;7866;52.280;9.500;2022-09-20T11:45:57;3.13;;;1.08;;
15528;SDS011;7866;52.280;9.500;2022-09-20T11:56:29;1.45;;;0.70;;
15528;SDS011;7866;52.280;9.500;2022-09-20T12:01:34;1.83;;;0.93;;
15528;SDS011;7866;52.280;9.500;2022-09-20T12:06:38;1.90;;;0.73;;
15528;SDS011;7866;52.280;9.500;2022-09-20T12:11:43;2.08;;;0.55;;
15528;SDS011;7866;52.280;9.500;2022-09-20T12:16:45;2.03;;;0.75;;
15528;SDS011;7866;52.280;9.500;2022-09-20T12:32:58;1.25;;;1.10;;
15528;SDS011;7866;52.280;9.500;2022-09-20T12:38:15;1.65;;;0.93;;
15528;SDS011;7866;52.280;9.500;2022-09-20T12:43:18;0.60;;;0.60;;
15528;SDS011;7866;52.280;9.500;2022-09-20T12:48:23;1.45;;;0.70;;
15528;SDS011;7866;52.280;9.500;2022-09-20T12:53:25;0.90;;;0.63;;
15528;SDS011;7866;52.280;9.500;2022-09-20T12:58:32;1.52;;;0.65;;
15528;SDS011;7866;52.280;9.500;2022-09-20T13:03:37;0.75;;;0.50;;
15528;SDS011;7866;52.280;9.500;2022-09-20T13:08:39;2.85;;;0.65;;
15528;SDS011;7866;52.280;9.500;2022-09-20T13:13:48;2.05;;;1.00;;
15528;SDS011;7866;52.280;9.500;2022-09-20T13:18:53;3.70;;;0.90;;
15528;SDS011;7866;52.280;9.500;2022-09-20T13:24:01;2.65;;;0.88;;
15528;SDS011;7866;52.280;9.500;2022-09-20T13:29:04;2.63;;;0.73;;
15528;SDS011;7866;52.280;9.500;2022-09-20T13:34:13;4.03;;;1.30;;
15528;SDS011;7866;52.280;9.500;2022-09-20T13:39:22;1.00;;;0.90;;
15528;SDS011;7866;52.280;9.500;2022-09-20T13:44:31;1.58;;;1.20;;
15528;SDS011;7866;52.280;9.500;2022-09-20T13:49:34;2.42;;;1.10;;
15528;SDS011;7866;52.280;9.500;2022-09-20T13:54:43;2.33;;;1.00;;
15528;SDS011;7866;52.280;9.500;2022-09-20T13:59:46;3.40;;;1.00;;
15528;SDS011;7866;52.280;9.500;2022-09-20T14:04:48;1.80;;;0.93;;
15528;SDS011;7866;52.280;9.500;2022-09-20T14:09:54;2.85;;;1.17;;
15528;SDS011;7866;52.280;9.500;2022-09-20T14:14:58;2.22;;;1.00;;
15528;SDS011;7866;52.280;9.500;2022-09-20T14:20:04;1.80;;;1.05;;
15528;SDS011;7866;52.280;9.500;2022-09-20T14:25:17;1.85;;;0.93;;
15528;SDS011;7866;52.280;9.500;2022-09-20T14:30:28;0.88;;;0.70;;
15528;SDS011;7866;52.280;9.500;2022-09-20T14:35:31;0.88;;;0.40;;
15528;SDS011;7866;52.280;9.500;2022-09-20T14:40:39;1.63;;;0.40;;
15528;SDS011;7866;52.280;9.500;2022-09-20T14:45:49;0.85;;;0.50;;
15528;SDS011;7866;52.280;9.500;2022-09-20T14:51:07;0.90;;;0.47;;
15528;SDS011;7866;52.280;9.500;2022-09-20T14:56:31;0.40;;;0.40;;
15528;SDS011;7866;52.280;9.500;2022-09-20T15:01:38;0.88;;;0.68;;
15528;SDS011;7866;52.280;9.500;2022-09-20T15:06:44;0.32;;;0.32;;
15528;SDS011;7866;52.280;9.500;2022-09-20T15:11:45;0.57;;;0.40;;
15528;SDS011;7866;52.280;9.500;2022-09-20T15:16:50;1.15;;;0.43;;
15528;SDS011;7866;52.280;9.500;2022-09-20T15:21:52;0.93;;;0.43;;
15528;SDS011;7866;52.280;9.500;2022-09-20T15:26:53;0.75;;;0.50;;
15528;SDS011;7866;52.280;9.500;2022-09-20T15:31:56;0.70;;;0.70;;
15528;SDS011;7866;52.280;9.500;2022-09-20T15:36:58;0.80;;;0.73;;
15528;SDS011;7866;52.280;9.500;2022-09-20T15:42:00;1.27;;;0.70;;
15528;SDS011;7866;52.280;9.500;2022-09-20T15:47:04;0.88;;;0.52;;
15528;SDS011;7866;52.280;9.500;2022-09-20T15:52:06;1.33;;;0.88;;
15528;SDS011;7866;52.280;9.500;2022-09-20T15:57:08;1.15;;;0.85;;
15528;SDS011;7866;52.280;9.500;2022-09-20T16:02:11;0.73;;;0.60;;
15528;SDS011;7866;52.280;9.500;2022-09-20T16:07:13;0.65;;;0.60;;
15528;SDS011;7866;52.280;9.500;2022-09-20T16:12:17;0.65;;;0.60;;
15528;SDS011;7866;52.280;9.500;2022-09-20T16:17:21;1.90;;;0.80;;
15528;SDS011;7866;52.280;9.500;2022-09-20T16:22:42;1.90;;;1.10;;
15528;SDS011;7866;52.280;9.500;2022-09-20T16:27:46;1.53;;;0.60;;
15528;SDS011;7866;52.280;9.500;2022-09-20T16:32:49;1.48;;;0.75;;
15528;SDS011;7866;52.280;9.500;2022-09-20T16:37:51;0.70;;;0.60;;
15528;SDS011;7866;52.280;9.500;2022-09-20T16:42:53;1.27;;;0.50;;
15528;SDS011;7866;52.280;9.500;2022-09-20T16:47:59;1.80;;;0.70;;
15528;SDS011;7866;52.280;9.500;2022-09-20T16:53:02;2.17;;;0.80;;
15528;SDS011;7866;52.280;9.500;2022-09-20T16:58:04;2.13;;;0.53;;
15528;SDS011;7866;52.280;9.500;2022-09-20T17:03:09;2.03;;;1.00;;
15528;SDS011;7866;52.280;9.500;2022-09-20T17:08:11;2.47;;;0.97;;
15528;SDS011;7866;52.280;9.500;2022-09-20T17:13:14;3.83;;;2.00;;
15528;SDS011;7866;52.280;9.500;2022-09-20T17:18:17;1.63;;;1.00;;
15528;SDS011;7866;52.280;9.500;2022-09-20T17:23:19;3.53;;;2.10;;
15528;SDS011;7866;52.280;9.500;2022-09-20T17:28:22;2.30;;;1.10;;
15528;SDS011;7866;52.280;9.500;2022-09-20T17:33:25;1.27;;;1.17;;
15528;SDS011;7866;52.280;9.500;2022-09-20T17:38:29;2.53;;;0.90;;
15528;SDS011;7866;52.280;9.500;2022-09-20T17:43:32;1.37;;;0.93;;
15528;SDS011;7866;52.280;9.500;2022-09-20T17:48:36;1.60;;;1.03;;
15528;SDS011;7866;52.280;9.500;2022-09-20T17:53:38;1.77;;;0.73;;
15528;SDS011;7866;52.280;9.500;2022-09-20T17:58:40;1.43;;;0.90;;
15528;SDS011;7866;52.280;9.500;2022-09-20T18:03:44;2.27;;;0.87;;
15528;SDS011;7866;52.280;9.500;2022-09-20T18:08:48;2.23;;;1.00;;
15528;SDS011;7866;52.280;9.500;2022-09-20T18:13:51;2.73;;;1.17;;
15528;SDS011;7866;52.280;9.500;2022-09-20T18:18:54;3.07;;;1.27;;
15528;SDS011;7866;52.280;9.500;2022-09-20T18:23:56;1.73;;;1.20;;
15528;SDS011;7866;52.280;9.500;2022-09-20T18:28:58;1.73;;;1.07;;
15528;SDS011;7866;52.280;9.500;2022-09-20T18:34:03;2.97;;;0.77;;
15528;SDS011;7866;52.280;9.500;2022-09-20T18:39:06;1.80;;;0.40;;
15528;SDS011;7866;52.280;9.500;2022-09-20T18:44:09;1.90;;;0.83;;
15528;SDS011;7866;52.280;9.500;2022-09-20T18:54:17;1.73;;;0.70;;
15528;SDS011;7866;52.280;9.500;2022-09-20T18:59:20;0.87;;;0.80;;
15528;SDS011;7866;52.280;9.500;2022-09-20T19:04:28;1.87;;;0.90;;
15528;SDS011;7866;52.280;9.500;2022-09-20T19:09:44;1.90;;;0.73;;
15528;SDS011;7866;52.280;9.500;2022-09-20T19:20:39;2.00;;;0.77;;
15528;SDS011;7866;52.280;9.500;2022-09-20T19:25:47;1.80;;;0.80;;
15528;SDS011;7866;52.280;9.500;2022-09-20T19:30:49;2.50;;;0.80;;
15528;SDS011;7866;52.280;9.500;2022-09-20T19:35:51;0.93;;;0.80;;
15528;SDS011;7866;52.280;9.500;2022-09-20T19:40:56;2.60;;;0.87;;
15528;SDS011;7866;52.280;9.500;2022-09-20T19:46:10;2.43;;;1.40;;
15528;SDS011;7866;52.280;9.500;2022-09-20T19:51:23;2.13;;;1.27;;
15528;SDS011;7866;52.280;9.500;2022-09-20T19:56:27;1.43;;;1.10;;
15528;SDS011;7866;52.280;9.500;2022-09-20T20:01:39;2.63;;;0.67;;
15528;SDS011;7866;52.280;9.500;2022-09-20T20:06:43;2.10;;;0.63;;
15528;SDS011;7866;52.280;9.500;2022-09-20T20:11:55;2.90;;;0.80;;
15528;SDS011;7866;52.280;9.500;2022-09-20T20:17:05;2.53;;;0.70;;
15528;SDS011;7866;52.280;9.500;2022-09-20T20:22:29;1.23;;;0.70;;
15528;SDS011;7866;52.280;9.500;2022-09-20T20:27:43;0.93;;;0.60;;
15528;SDS011;7866;52.280;9.500;2022-09-20T20:32:44;1.40;;;0.67;;
15528;SDS011;7866;52.280;9.500;2022-09-20T20:37:46;1.50;;;0.80;;
15528;SDS011;7866;52.280;9.500;2022-09-20T20:42:52;3.20;;;1.00;;
15528;SDS011;7866;52.280;9.500;2022-09-20T20:48:01;1.30;;;0.70;;
15528;SDS011;7866;52.280;9.500;2022-09-20T20:53:02;2.53;;;1.10;;
15528;SDS011;7866;52.280;9.500;2022-09-20T20:58:07;1.40;;;1.17;;
15528;SDS011;7866;52.280;9.500;2022-09-20T21:03:09;3.17;;;0.97;;
15528;SDS011;7866;52.280;9.500;2022-09-20T21:08:11;1.47;;;0.70;;
15528;SDS011;7866;52.280;9.500;2022-09-20T21:13:14;1.00;;;0.50;;
15528;SDS011;7866;52.280;9.500;2022-09-20T21:18:16;1.27;;;0.90;;
15528;SDS011;7866;52.280;9.500;2022-09-20T21:23:17;1.17;;;0.80;;
15528;SDS011;7866;52.280;9.500;2022-09-20T21:28:20;3.40;;;0.70;;
15528;SDS011;7866;52.280;9.500;2022-09-20T21:33:22;0.87;;;0.67;;
15528;SDS011;7866;52.280;9.500;2022-09-20T21:38:24;1.47;;;0.60;;
15528;SDS011;7866;52.280;9.500;2022-09-20T21:43:28;4.40;;;0.80;;
15528;SDS011;7866;52.280;9.500;2022-09-20T21:48:31;4.10;;;0.90;;
15528;SDS011;7866;52.280;9.500;2022-09-20T21:53:32;1.03;;;0.80;;
15528;SDS011;7866;52.280;9.500;2022-09-20T21:58:36;1.83;;;1.03;;
15528;SDS011;7866;52.280;9.500;2022-09-20T22:03:39;3.70;;;0.80;;
15528;SDS011;7866;52.280;9.500;2022-09-20T22:08:44;2.43;;;0.83;;
15528;SDS011;7866;52.280;9.500;2022-09-20T22:13:49;2.77;;;0.77;;
15528;SDS011;7866;52.280;9.500;2022-09-20T22:18:52;0.67;;;0.67;;
15528;SDS011;7866;52.280;9.500;2022-09-20T22:23:55;2.30;;;0.80;;
15528;SDS011;7866;52.280;9.500;2022-09-20T22:29:00;1.53;;;0.70;;
15528;SDS011;7866;52.280;9.500;2022-09-20T22:34:03;2.10;;;0.80;;
15528;SDS011;7866;52.280;9.500;2022-09-20T22:39:07;1.73;;;0.80;;
15528;SDS011;7866;52.280;9.500;2022-09-20T22:44:11;1.90;;;0.83;;
15528;SDS011;7866;52.280;9.500;2022-09-20T22:49:12;2.30;;;0.90;;
15528;SDS011;7866;52.280;9.500;2022-09-20T22:54:15;2.53;;;0.80;;
15528;SDS011;7866;52.280;9.500;2022-09-20T22:59:19;2.40;;;1.10;;
15528;SDS011;7866;52.280;9.500;2022-09-20T23:04:20;2.57;;;0.90;;
15528;SDS011;7866;52.280;9.500;2022-09-20T23:09:23;2.90;;;1.00;;
15528;SDS011;7866;52.280;9.500;2022-09-20T23:14:28;0.87;;;0.70;;
15528;SDS011;7866;52.280;9.500;2022-09-20T23:19:29;1.73;;;1.00;;
15528;SDS011;7866;52.280;9.500;2022-09-20T23:24:31;1.37;;;1.00;;
15528;SDS011;7866;52.280;9.500;2022-09-20T23:29:34;3.83;;;1.37;;
15528;SDS011;7866;52.280;9.500;2022-09-20T23:34:35;2.70;;;1.10;;
15528;SDS011;7866;52.280;9.500;2022-09-20T23:39:37;1.23;;;0.70;;
15528;SDS011;7866;52.280;9.500;2022-09-20T23:44:41;2.90;;;1.20;;
15528;SDS011;7866;52.280;9.500;2022-09-20T23:49:43;3.33;;;0.87;;
15528;SDS011;7866;52.280;9.500;2022-09-20T23:54:45;3.67;;;1.10;;
15528;SDS011;7866;52.280;9.500;2022-09-20T23:59:48;4.17;;;1.00;;
